createdAt,value
2023-02-27T00:01:51.995Z,103061.28
2023-02-27T00:04:18.378Z,103060.34
2023-02-27T00:06:44.795Z,103060.50
2023-02-27T00:09:11.183Z,103063.38
2023-02-27T00:11:38.541Z,103056.66
2023-02-27T00:14:05.715Z,103061.34
2023-02-27T00:16:32.208Z,103061.44
2023-02-27T00:19:01.172Z,103061.63
2023-02-27T00:21:28.085Z,103052.84
2023-02-27T00:23:55.316Z,103054.69
2023-02-27T00:26:21.766Z,103059.09
2023-02-27T00:28:48.248Z,103065.28
2023-02-27T00:31:14.868Z,103061.88
2023-02-27T00:33:41.400Z,103067.19
2023-02-27T00:36:07.954Z,103061.72
2023-02-27T00:38:34.907Z,103062.56
2023-02-27T00:41:01.536Z,103061.78
2023-02-27T00:43:27.926Z,103058.28
2023-02-27T00:45:54.323Z,103066.16
2023-02-27T00:48:20.720Z,103072.38
2023-02-27T00:50:47.475Z,103060.88
2023-02-27T00:53:13.907Z,103061.78
2023-02-27T00:55:40.336Z,103066.97
2023-02-27T00:58:06.763Z,103066.03
2023-02-27T01:00:33.179Z,103054.59
2023-02-27T01:02:59.586Z,103060.00
2023-02-27T01:05:26.040Z,103066.22
2023-02-27T01:07:52.419Z,103055.72
2023-02-27T01:10:18.910Z,103055.00
2023-02-27T01:12:45.313Z,103061.34
2023-02-27T01:15:12.515Z,103059.47
2023-02-27T01:17:38.947Z,103057.53
2023-02-27T01:20:07.485Z,103054.84
2023-02-27T01:22:34.483Z,103062.72
2023-02-27T01:25:01.279Z,103058.34
2023-02-27T01:27:27.908Z,103055.88
2023-02-27T01:29:54.344Z,103056.84
2023-02-27T01:32:20.926Z,103056.78
2023-02-27T01:34:47.403Z,103055.78
2023-02-27T01:37:13.834Z,103060.88
2023-02-27T01:39:40.268Z,103056.31
2023-02-27T01:42:18.161Z,103060.66
2023-02-27T01:45:12.074Z,103057.25
2023-02-27T01:47:43.864Z,103055.75
2023-02-27T01:50:12.062Z,103048.66
2023-02-27T01:52:40.742Z,103062.66
2023-02-27T01:55:08.780Z,103054.50
2023-02-27T01:57:36.120Z,103052.50
2023-02-27T02:00:04.402Z,103054.97
2023-02-27T02:02:37.512Z,103046.09
2023-02-27T02:05:06.835Z,103046.06
2023-02-27T02:07:34.759Z,103046.81
2023-02-27T02:10:02.458Z,103044.78
2023-02-27T02:12:34.008Z,103049.84
2023-02-27T02:15:00.507Z,103048.81
2023-02-27T02:17:56.848Z,103055.75
2023-02-27T02:20:56.641Z,103066.16
2023-02-27T02:23:42.974Z,103062.53
2023-02-27T02:26:25.005Z,103052.59
2023-02-27T02:29:09.885Z,103063.97
2023-02-27T02:31:36.258Z,103064.72
2023-02-27T02:34:39.861Z,103061.34
2023-02-27T02:37:40.380Z,103073.66
2023-02-27T02:40:19.357Z,103068.06
2023-02-27T02:42:56.628Z,103068.91
2023-02-27T02:45:33.323Z,103064.44
2023-02-27T02:48:27.755Z,103072.41
2023-02-27T02:51:10.173Z,103061.81
2023-02-27T02:54:00.104Z,103060.69
2023-02-27T02:56:32.532Z,103062.31
2023-02-27T02:59:10.732Z,103066.44
2023-02-27T03:01:50.180Z,103059.16
2023-02-27T03:04:24.201Z,103054.66
2023-02-27T03:06:58.108Z,103055.50
2023-02-27T03:09:37.636Z,103056.28
2023-02-27T03:12:08.987Z,103050.00
2023-02-27T03:14:43.467Z,103047.16
2023-02-27T03:17:18.934Z,103046.13
2023-02-27T03:19:52.622Z,103048.56
2023-02-27T03:22:24.151Z,103044.34
2023-02-27T03:24:54.492Z,103039.06
2023-02-27T03:27:22.961Z,103046.84
2023-02-27T03:30:08.798Z,103042.31
2023-02-27T03:32:46.468Z,103043.16
2023-02-27T03:35:13.519Z,103046.47
2023-02-27T03:37:51.795Z,103045.69
2023-02-27T03:40:25.126Z,103038.56
2023-02-27T03:43:04.209Z,103030.53
2023-02-27T03:45:53.761Z,103040.28
2023-02-27T03:48:20.471Z,103048.91
2023-02-27T03:50:47.115Z,103044.50
2023-02-27T03:53:25.344Z,103045.34
2023-02-27T03:55:53.433Z,103047.06
2023-02-27T03:58:19.958Z,103054.03
2023-02-27T04:00:46.363Z,103050.34
2023-02-27T04:03:13.254Z,103057.19
2023-02-27T04:05:39.724Z,103069.28
2023-02-27T04:08:13.178Z,103065.78
2023-02-27T04:11:07.123Z,103071.00
2023-02-27T04:13:46.109Z,103072.94
2023-02-27T04:16:40.386Z,103081.50
2023-02-27T04:19:16.257Z,103086.75
2023-02-27T04:22:17.926Z,103081.47
2023-02-27T04:24:56.472Z,103096.53
2023-02-27T04:27:46.304Z,103095.84
2023-02-27T04:30:24.884Z,103089.50
2023-02-27T04:33:13.062Z,103090.16
2023-02-27T04:35:54.711Z,103091.41
2023-02-27T04:38:39.249Z,103096.22
2023-02-27T04:41:30.506Z,103100.28
2023-02-27T04:43:58.070Z,103108.75
2023-02-27T04:46:28.652Z,103111.06
2023-02-27T04:49:09.059Z,103112.91
2023-02-27T04:51:52.285Z,103117.56
2023-02-27T04:54:27.487Z,103115.72
2023-02-27T04:56:58.394Z,103116.44
2023-02-27T04:59:28.341Z,103115.38
2023-02-27T05:02:02.348Z,103120.59
2023-02-27T05:04:32.935Z,103110.06
2023-02-27T05:07:01.886Z,103123.50
2023-02-27T05:09:35.048Z,103123.91
2023-02-27T05:12:14.877Z,103131.34
2023-02-27T05:15:16.118Z,103128.28
2023-02-27T05:17:58.969Z,103125.25
2023-02-27T05:20:30.380Z,103123.75
2023-02-27T05:23:02.288Z,103129.97
2023-02-27T05:25:41.226Z,103134.50
2023-02-27T05:28:23.304Z,103131.09
2023-02-27T05:31:18.529Z,103134.00
2023-02-27T05:33:55.632Z,103140.47
2023-02-27T05:36:28.154Z,103144.25
2023-02-27T05:38:59.835Z,103137.16
2023-02-27T05:41:31.723Z,103132.00
2023-02-27T05:44:03.729Z,103131.13
2023-02-27T05:46:46.190Z,103127.00
2023-02-27T05:49:22.763Z,103130.88
2023-02-27T05:51:53.098Z,103132.38
2023-02-27T05:54:31.902Z,103135.13
2023-02-27T05:56:59.651Z,103128.09
2023-02-27T05:59:47.875Z,103128.94
2023-02-27T06:02:14.574Z,103139.72
2023-02-27T06:04:41.662Z,103137.25
2023-02-27T06:07:08.672Z,103138.47
2023-02-27T06:09:35.546Z,103141.22
2023-02-27T06:12:02.144Z,103144.81
2023-02-27T06:14:28.608Z,103146.50
2023-02-27T06:16:55.079Z,103146.44
2023-02-27T06:19:21.483Z,103157.16
2023-02-27T06:21:47.861Z,103161.75
2023-02-27T06:24:14.326Z,103162.88
2023-02-27T06:26:40.762Z,103156.75
2023-02-27T06:29:07.208Z,103154.28
2023-02-27T06:31:33.726Z,103149.13
2023-02-27T06:34:00.141Z,103150.19
2023-02-27T06:36:29.468Z,103151.94
2023-02-27T06:38:56.251Z,103145.91
2023-02-27T06:41:22.629Z,103154.19
2023-02-27T06:43:49.238Z,103160.63
2023-02-27T06:46:15.649Z,103148.41
2023-02-27T06:48:42.117Z,103157.44
2023-02-27T06:51:08.521Z,103152.25
2023-02-27T06:53:34.962Z,103155.91
2023-02-27T06:56:01.337Z,103163.22
2023-02-27T06:58:27.779Z,103148.44
2023-02-27T07:00:54.286Z,103158.38
2023-02-27T07:03:20.782Z,103163.00
2023-02-27T07:05:47.202Z,103172.91
2023-02-27T07:08:13.577Z,103168.53
2023-02-27T07:10:42.854Z,103157.97
2023-02-27T07:13:09.274Z,103152.75
2023-02-27T07:15:35.718Z,103163.56
2023-02-27T07:18:02.471Z,103168.97
2023-02-27T07:20:28.897Z,103173.59
2023-02-27T07:22:55.302Z,103174.59
2023-02-27T07:25:21.757Z,103173.88
2023-02-27T07:27:49.644Z,103181.09
2023-02-27T07:30:16.931Z,103179.44
2023-02-27T07:32:43.506Z,103180.47
2023-02-27T07:35:10.299Z,103188.63
2023-02-27T07:37:36.732Z,103190.53
2023-02-27T07:40:04.054Z,103190.66
2023-02-27T07:42:30.451Z,103191.72
2023-02-27T07:44:56.913Z,103202.50
2023-02-27T07:47:23.378Z,103199.09
2023-02-27T07:49:49.788Z,103200.97
2023-02-27T07:52:16.245Z,103200.16
2023-02-27T07:54:42.698Z,103204.66
2023-02-27T07:57:09.134Z,103195.94
2023-02-27T07:59:35.625Z,103201.41
2023-02-27T08:02:02.178Z,103188.00
2023-02-27T08:04:28.670Z,103193.22
2023-02-27T08:06:55.104Z,103190.38
2023-02-27T08:09:21.536Z,103203.72
2023-02-27T08:11:49.097Z,103193.94
2023-02-27T08:14:16.031Z,103198.41
2023-02-27T08:16:42.489Z,103204.53
2023-02-27T08:19:09.000Z,103201.91
2023-02-27T08:21:35.432Z,103200.91
2023-02-27T08:24:02.032Z,103201.72
2023-02-27T08:26:28.709Z,103206.91
2023-02-27T08:28:55.306Z,103204.97
2023-02-27T08:31:21.794Z,103206.44
2023-02-27T08:33:49.615Z,103208.03
2023-02-27T08:36:19.510Z,103213.09
2023-02-27T08:38:45.928Z,103207.13
2023-02-27T08:41:12.353Z,103213.56
2023-02-27T08:43:38.724Z,103215.91
2023-02-27T08:46:05.464Z,103215.31
2023-02-27T08:48:31.899Z,103213.91
2023-02-27T08:50:58.405Z,103213.84
2023-02-27T08:53:25.398Z,103216.16
2023-02-27T08:55:51.988Z,103214.34
2023-02-27T08:58:18.545Z,103219.63
2023-02-27T09:00:46.050Z,103227.28
2023-02-27T09:03:12.696Z,103210.94
2023-02-27T09:05:39.359Z,103222.91
2023-02-27T09:08:07.107Z,103229.19
2023-02-27T09:10:34.216Z,103227.63
2023-02-27T09:13:01.276Z,103235.91
2023-02-27T09:15:27.812Z,103233.03
2023-02-27T09:17:56.478Z,103230.38
2023-02-27T09:20:23.029Z,103230.25
2023-02-27T09:22:49.515Z,103238.84
2023-02-27T09:25:15.947Z,103227.22
2023-02-27T09:27:42.331Z,103226.72
2023-02-27T09:30:09.667Z,103229.53
2023-02-27T09:32:36.117Z,103231.00
2023-02-27T09:35:02.665Z,103241.53
2023-02-27T09:37:29.126Z,103248.88
2023-02-27T09:39:55.464Z,103242.53
2023-02-27T09:42:25.551Z,103239.56
2023-02-27T09:44:56.021Z,103235.06
2023-02-27T09:47:43.795Z,103250.59
2023-02-27T09:50:37.907Z,103248.09
2023-02-27T09:53:07.306Z,103247.75
2023-02-27T09:55:39.893Z,103248.16
2023-02-27T09:58:24.405Z,103247.66
2023-02-27T10:01:09.651Z,103247.75
2023-02-27T10:04:05.441Z,103244.16
2023-02-27T10:06:48.490Z,103238.47
2023-02-27T10:09:43.028Z,103243.91
2023-02-27T10:12:23.845Z,103247.91
2023-02-27T10:15:05.931Z,103243.91
2023-02-27T10:17:37.941Z,103258.28
2023-02-27T10:20:10.588Z,103258.91
2023-02-27T10:22:43.142Z,103255.84
2023-02-27T10:25:30.421Z,103253.59
2023-02-27T10:28:03.568Z,103263.66
2023-02-27T10:30:33.564Z,103243.69
2023-02-27T10:33:35.568Z,103250.44
2023-02-27T10:36:03.637Z,103255.19
2023-02-27T10:38:37.454Z,103253.84
2023-02-27T10:41:06.004Z,103259.66
2023-02-27T10:43:32.390Z,103254.13
2023-02-27T10:46:03.602Z,103259.56
2023-02-27T10:48:32.544Z,103255.38
2023-02-27T10:51:23.569Z,103262.72
2023-02-27T10:53:52.576Z,103249.16
2023-02-27T10:56:27.891Z,103251.56
2023-02-27T10:59:06.366Z,103244.25
2023-02-27T11:01:49.099Z,103259.13
2023-02-27T11:04:25.090Z,103249.16
2023-02-27T11:06:53.762Z,103251.16
2023-02-27T11:09:29.122Z,103252.78
2023-02-27T11:12:09.445Z,103247.47
2023-02-27T11:14:35.856Z,103249.41
2023-02-27T11:17:03.257Z,103242.00
2023-02-27T11:19:31.848Z,103230.84
2023-02-27T11:22:13.727Z,103226.84
2023-02-27T11:24:40.491Z,103231.34
2023-02-27T11:27:29.199Z,103223.31
2023-02-27T11:30:06.510Z,103225.38
2023-02-27T11:32:40.863Z,103222.94
2023-02-27T11:35:26.805Z,103229.03
2023-02-27T11:37:55.658Z,103220.34
2023-02-27T11:40:27.639Z,103228.69
2023-02-27T11:42:57.533Z,103226.25
2023-02-27T11:46:12.683Z,103227.66
2023-02-27T11:48:28.857Z,103221.03
2023-02-27T11:51:11.201Z,103218.97
2023-02-27T11:54:11.332Z,103226.69
2023-02-27T11:56:53.249Z,103214.56
2023-02-27T11:59:19.635Z,103208.06
2023-02-27T12:01:53.547Z,103207.63
2023-02-27T12:04:41.740Z,103205.53
2023-02-27T12:07:20.949Z,103198.81
2023-02-27T12:09:59.507Z,103205.75
2023-02-27T12:12:33.940Z,103200.97
2023-02-27T12:15:00.369Z,103210.59
2023-02-27T12:17:35.465Z,103209.34
2023-02-27T12:20:18.467Z,103207.06
2023-02-27T12:22:48.675Z,103195.25
2023-02-27T12:25:34.691Z,103194.38
2023-02-27T12:28:08.848Z,103189.16
2023-02-27T12:31:01.745Z,103190.81
2023-02-27T12:33:47.018Z,103177.00
2023-02-27T12:36:14.627Z,103178.97
2023-02-27T12:38:42.000Z,103187.16
2023-02-27T12:41:19.216Z,103187.44
2023-02-27T12:44:06.966Z,103180.34
2023-02-27T12:46:39.584Z,103176.69
2023-02-27T12:49:44.722Z,103185.66
2023-02-27T12:52:23.209Z,103184.16
2023-02-27T12:55:07.737Z,103187.03
2023-02-27T12:57:48.949Z,103184.50
2023-02-27T13:00:26.039Z,103185.34
2023-02-27T13:03:18.091Z,103175.94
2023-02-27T13:06:12.902Z,103178.91
2023-02-27T13:08:45.281Z,103181.91
2023-02-27T13:11:14.415Z,103184.44
2023-02-27T13:14:01.920Z,103178.94
2023-02-27T13:16:56.012Z,103176.63
2023-02-27T13:20:04.966Z,103172.72
2023-02-27T13:22:48.414Z,103175.88
2023-02-27T13:25:17.427Z,103170.06
2023-02-27T13:27:49.735Z,103173.97
2023-02-27T13:30:35.118Z,103184.81
2023-02-27T13:33:18.251Z,103189.41
2023-02-27T13:36:09.821Z,103166.19
2023-02-27T13:38:45.068Z,103172.94
2023-02-27T13:41:21.660Z,103182.63
2023-02-27T13:43:52.605Z,103180.09
2023-02-27T13:46:24.980Z,103176.84
2023-02-27T13:49:20.076Z,103184.22
2023-02-27T13:51:56.685Z,103180.03
2023-02-27T13:54:26.594Z,103188.06
2023-02-27T13:56:58.854Z,103176.94
2023-02-27T13:59:28.993Z,103184.16
2023-02-27T14:02:25.440Z,103181.94
2023-02-27T14:04:55.150Z,103180.34
2023-02-27T14:07:34.077Z,103179.72
2023-02-27T14:10:08.861Z,103178.09
2023-02-27T14:12:45.690Z,103172.16
2023-02-27T14:15:24.778Z,103159.75
2023-02-27T14:18:12.600Z,103159.34
2023-02-27T14:20:42.198Z,103169.50
2023-02-27T14:23:22.728Z,103178.25
2023-02-27T14:25:53.332Z,103187.81
2023-02-27T14:28:42.943Z,103187.34
2023-02-27T14:31:32.323Z,103176.25
2023-02-27T14:34:05.237Z,103168.03
2023-02-27T14:37:02.317Z,103165.38
2023-02-27T14:39:35.190Z,103166.06
2023-02-27T14:42:22.210Z,103166.47
2023-02-27T14:44:50.855Z,103160.81
2023-02-27T14:47:35.744Z,103164.94
2023-02-27T14:50:08.315Z,103165.69
2023-02-27T14:52:42.640Z,103166.28
2023-02-27T14:55:18.303Z,103158.06
2023-02-27T14:57:57.516Z,103162.38
2023-02-27T15:00:39.382Z,103155.31
2023-02-27T15:03:29.218Z,103149.56
2023-02-27T15:06:01.110Z,103161.53
2023-02-27T15:08:37.993Z,103154.50
2023-02-27T15:11:05.332Z,103151.97
2023-02-27T15:13:38.835Z,103154.78
2023-02-27T15:16:24.467Z,103149.50
2023-02-27T15:18:54.401Z,103158.50
2023-02-27T15:21:24.400Z,103150.44
2023-02-27T15:23:59.160Z,103154.97
2023-02-27T15:26:29.909Z,103157.69
2023-02-27T15:28:59.677Z,103162.22
2023-02-27T15:31:29.956Z,103158.72
2023-02-27T15:33:57.356Z,103162.28
2023-02-27T15:36:27.641Z,103163.25
2023-02-27T15:39:05.823Z,103160.59
2023-02-27T15:41:32.785Z,103162.41
2023-02-27T15:43:59.296Z,103158.00
2023-02-27T15:46:26.189Z,103159.81
2023-02-27T15:48:54.659Z,103168.72
2023-02-27T15:51:21.112Z,103175.91
2023-02-27T15:53:54.342Z,103168.72
2023-02-27T15:56:27.240Z,103171.47
2023-02-27T15:59:00.234Z,103184.03
2023-02-27T16:01:30.446Z,103190.31
2023-02-27T16:03:59.562Z,103183.16
2023-02-27T16:06:29.889Z,103180.50
2023-02-27T16:08:58.188Z,103188.59
2023-02-27T16:11:30.441Z,103185.03
2023-02-27T16:13:57.730Z,103191.31
2023-02-27T16:16:34.892Z,103195.78
2023-02-27T16:19:29.932Z,103182.41
2023-02-27T16:22:13.556Z,103186.88
2023-02-27T16:24:40.563Z,103200.31
2023-02-27T16:27:14.262Z,103189.63
2023-02-27T16:29:44.805Z,103197.66
2023-02-27T16:32:28.637Z,103197.69
2023-02-27T16:35:18.361Z,103198.59
2023-02-27T16:37:45.892Z,103189.69
2023-02-27T16:40:22.602Z,103196.84
2023-02-27T16:42:49.893Z,103193.28
2023-02-27T16:45:25.964Z,103189.72
2023-02-27T16:47:54.579Z,103188.88
2023-02-27T16:50:28.710Z,103186.19
2023-02-27T16:52:55.157Z,103191.56
2023-02-27T16:55:21.852Z,103204.06
2023-02-27T16:57:48.351Z,103202.28
2023-02-27T17:00:16.985Z,103197.81
2023-02-27T17:02:43.558Z,103196.06
2023-02-27T17:05:10.822Z,103199.63
2023-02-27T17:07:37.388Z,103204.97
2023-02-27T17:10:04.031Z,103208.53
2023-02-27T17:12:30.415Z,103208.53
2023-02-27T17:14:57.201Z,103214.75
2023-02-27T17:17:23.586Z,103214.75
2023-02-27T17:19:50.206Z,103202.28
2023-02-27T17:22:16.816Z,103211.19
2023-02-27T17:24:43.347Z,103204.91
2023-02-27T17:27:09.849Z,103201.34
2023-02-27T17:29:38.577Z,103209.38
2023-02-27T17:32:05.686Z,103207.53
2023-02-27T17:34:32.117Z,103211.97
2023-02-27T17:36:58.512Z,103214.66
2023-02-27T17:39:25.090Z,103213.78
2023-02-27T17:41:52.850Z,103220.84
2023-02-27T17:44:19.334Z,103219.97
2023-02-27T17:46:45.728Z,103222.63
2023-02-27T17:49:13.299Z,103221.72
2023-02-27T17:51:39.813Z,103221.69
2023-02-27T17:54:06.871Z,103225.25
2023-02-27T17:56:35.577Z,103224.34
2023-02-27T17:59:03.035Z,103226.06
2023-02-27T18:01:29.556Z,103216.28
2023-02-27T18:03:56.248Z,103221.59
2023-02-27T18:06:23.922Z,103222.44
2023-02-27T18:08:50.484Z,103220.59
2023-02-27T18:11:19.106Z,103228.59
2023-02-27T18:13:46.040Z,103230.31
2023-02-27T18:16:12.730Z,103231.19
2023-02-27T18:18:41.136Z,103228.53
2023-02-27T18:21:14.614Z,103232.03
2023-02-27T18:23:42.045Z,103236.47
2023-02-27T18:26:27.215Z,103242.75
2023-02-27T18:28:57.109Z,103240.09
2023-02-27T18:31:27.000Z,103243.75
2023-02-27T18:33:53.772Z,103244.66
2023-02-27T18:36:21.155Z,103243.78
2023-02-27T18:38:47.848Z,103235.81
2023-02-27T18:41:14.545Z,103239.41
2023-02-27T18:43:42.641Z,103238.50
2023-02-27T18:46:11.103Z,103243.84
2023-02-27T18:48:37.695Z,103250.03
2023-02-27T18:51:12.178Z,103258.00
2023-02-27T18:53:39.674Z,103255.31
2023-02-27T18:56:08.065Z,103255.25
2023-02-27T18:58:34.816Z,103257.03
2023-02-27T19:01:01.344Z,103256.97
2023-02-27T19:03:27.925Z,103248.91
2023-02-27T19:05:54.564Z,103248.84
2023-02-27T19:08:20.989Z,103255.00
2023-02-27T19:10:47.498Z,103250.56
2023-02-27T19:13:14.009Z,103253.16
2023-02-27T19:15:40.667Z,103258.41
2023-02-27T19:18:07.201Z,103252.16
2023-02-27T19:20:34.764Z,103251.19
2023-02-27T19:23:01.237Z,103249.31
2023-02-27T19:25:27.712Z,103253.72
2023-02-27T19:27:55.168Z,103253.72
2023-02-27T19:30:22.108Z,103251.00
2023-02-27T19:32:48.514Z,103252.75
2023-02-27T19:35:15.268Z,103251.81
2023-02-27T19:37:42.419Z,103261.56
2023-02-27T19:40:10.518Z,103257.88
2023-02-27T19:42:37.125Z,103264.91
2023-02-27T19:45:03.839Z,103261.34
2023-02-27T19:47:30.334Z,103259.59
2023-02-27T19:49:56.708Z,103263.94
2023-02-27T19:52:23.119Z,103272.75
2023-02-27T19:54:49.560Z,103273.66
2023-02-27T19:57:15.960Z,103272.72
2023-02-27T19:59:42.468Z,103271.81
2023-02-27T20:02:11.175Z,103266.41
2023-02-27T20:04:37.733Z,103270.66
2023-02-27T20:07:04.231Z,103274.97
2023-02-27T20:09:33.201Z,103283.88
2023-02-27T20:12:01.441Z,103269.69
2023-02-27T20:14:28.793Z,103261.63
2023-02-27T20:16:55.711Z,103274.00
2023-02-27T20:19:23.399Z,103274.66
2023-02-27T20:21:51.820Z,103275.53
2023-02-27T20:24:18.781Z,103273.06
2023-02-27T20:26:48.294Z,103276.44
2023-02-27T20:29:18.790Z,103278.19
2023-02-27T20:31:47.929Z,103281.59
2023-02-27T20:34:16.973Z,103281.50
2023-02-27T20:36:43.848Z,103290.16
2023-02-27T20:39:11.654Z,103286.50
2023-02-27T20:41:39.796Z,103283.63
2023-02-27T20:44:08.533Z,103287.13
2023-02-27T20:46:36.606Z,103292.34
2023-02-27T20:49:04.975Z,103291.38
2023-02-27T20:51:35.859Z,103289.59
2023-02-27T20:54:04.635Z,103293.00
2023-02-27T20:56:34.737Z,103287.72
2023-02-27T20:59:05.174Z,103278.91
2023-02-27T21:01:32.150Z,103276.97
2023-02-27T21:03:59.400Z,103279.47
2023-02-27T21:06:26.580Z,103289.97
2023-02-27T21:08:55.784Z,103288.00
2023-02-27T21:11:25.404Z,103285.41
2023-02-27T21:13:51.864Z,103274.72
2023-02-27T21:16:19.058Z,103273.06
2023-02-27T21:18:45.792Z,103272.13
2023-02-27T21:21:16.190Z,103278.56
2023-02-27T21:23:43.630Z,103263.09
2023-02-27T21:26:17.696Z,103257.97
2023-02-27T21:28:47.839Z,103262.38
2023-02-27T21:31:19.488Z,103262.44
2023-02-27T21:33:46.002Z,103266.50
2023-02-27T21:36:12.565Z,103276.81
2023-02-27T21:38:40.023Z,103272.19
2023-02-27T21:41:11.453Z,103284.31
2023-02-27T21:43:40.474Z,103279.63
2023-02-27T21:46:09.210Z,103277.72
2023-02-27T21:48:36.022Z,103278.56
2023-02-27T21:51:03.456Z,103273.25
2023-02-27T21:53:30.409Z,103273.75
2023-02-27T21:56:03.543Z,103276.56
2023-02-27T21:58:30.051Z,103272.56
2023-02-27T22:00:56.534Z,103266.59
2023-02-27T22:03:22.974Z,103262.50
2023-02-27T22:05:49.471Z,103267.00
2023-02-27T22:08:15.922Z,103273.28
2023-02-27T22:10:48.551Z,103286.06
2023-02-27T22:13:15.906Z,103281.63
2023-02-27T22:15:42.500Z,103285.31
2023-02-27T22:18:09.088Z,103281.88
2023-02-27T22:20:38.417Z,103277.44
2023-02-27T22:23:05.031Z,103285.50
2023-02-27T22:25:32.005Z,103276.59
2023-02-27T22:27:59.649Z,103283.69
2023-02-27T22:30:26.785Z,103283.69
2023-02-27T22:32:53.707Z,103273.13
2023-02-27T22:35:20.783Z,103276.72
2023-02-27T22:37:47.197Z,103282.09
2023-02-27T22:40:14.367Z,103275.91
2023-02-27T22:42:40.783Z,103283.97
2023-02-27T22:45:07.917Z,103280.41
2023-02-27T22:47:34.425Z,103289.34
2023-02-27T22:50:00.834Z,103285.88
2023-02-27T22:52:27.293Z,103288.63
2023-02-27T22:54:53.824Z,103296.63
2023-02-27T22:57:20.237Z,103291.44
2023-02-27T22:59:49.503Z,103298.56
2023-02-27T23:02:17.239Z,103295.94
2023-02-27T23:04:43.814Z,103294.19
2023-02-27T23:07:10.278Z,103295.13
2023-02-27T23:09:36.718Z,103299.50
2023-02-27T23:12:04.367Z,103299.47
2023-02-27T23:14:30.765Z,103299.47
2023-02-27T23:16:57.205Z,103300.41
2023-02-27T23:19:23.647Z,103302.28
2023-02-27T23:21:50.135Z,103294.28
2023-02-27T23:24:18.615Z,103295.28
2023-02-27T23:26:48.187Z,103296.09
2023-02-27T23:29:15.089Z,103291.63
2023-02-27T23:31:42.388Z,103296.97
2023-02-27T23:34:09.207Z,103292.53
2023-02-27T23:36:37.333Z,103290.84
2023-02-27T23:39:05.093Z,103291.78
2023-02-27T23:41:32.465Z,103289.19
2023-02-27T23:43:58.973Z,103292.81
2023-02-27T23:46:30.130Z,103295.50
2023-02-27T23:49:00.996Z,103299.09
2023-02-27T23:51:30.259Z,103305.31
2023-02-27T23:53:57.724Z,103309.78
2023-02-27T23:56:27.516Z,103312.44
2023-02-27T23:59:02.992Z,103309.78
